الصفحة الرئيسية
METAR-TAF:

METAR-TAF

مطار :

مطار ليبرفيل الدولي

ليبرفيل, الغابون

دائرة عرض: 00-27N, خط طول: 009-25E, ارتفاع: 12 متر

مراقبة الطقس الحالي

تاريخ ووقت الإصدار 1ساعة و 16 دقيقة قبل الساعة 01:00UTC
ريح 5 عقدة من الجنوب, الاتجاه يتراوح بين الجنوب/الجنوب الشرقي و الغرب/الجنوب الغربي
درجة الحرارة 25°درجة مئوية
الرطوبة 89%
ضغط 1012 hPa
الرؤية: 8000 متر
غيوم متفرقة على ارتفاع 1000 قدم

METAR: FOOL 230100Z 19005KT 160V240 8000 SCT010 25/23 Q1012 NOSIG

زمن: 03:16 (02:16 UTC)

توقعات

تاريخ ووقت الإصدار 3ساعات و 16 دقيقة قبل الساعة 23:00UTC
التوقعات صالحة من23 الساعة 00 UTC إلى 24 الساعة 06 UTC
ريح 6 عقدة من الجنوب الغربي
الرؤية 10 كم أو أكثر
غيوم متفرقة على ارتفاع 1200 قدم
غيوم مفككة على ارتفاع 3000 قدم

TAF: FOOL 222300Z 2300/2406 22006KT 9999 SCT012 BKN030

أرصاد الطقس والتوقعات من أكثر من 4000 مطار (تقارير الطقس للمطار METAR والتنبؤ بالطقس بالمطارTAF).

المحطات المتاحة هي النقط الصفراء والحمراء على الخريطة.

حرك المؤشر فوق النقطة لمعرفة اسم المحطة.

ثم انقر لمعرفة أرصاد وتوقعات الطقس.

لتغيير الخارطة: اضغط على الأزرار الخضراء مع رمز الصليب الأسود للتكبير. على الزر الأخضر مع شرطة للتصغير، أو على الأسهم الخضراء للخرائط المجاورة.


METAR-TAF: